Mary Kathleen, Australia
Current Conditions -  °F | °C
As of 8:00 AM on Saturday 01 Nov 2014 (Local Time) from YBMA Reporting Station
Clear Clear  
Wind Chill: 88°   Ceiling: Unl
Heat Index: 88°   Visibility: 6mi
Dew Point: 63°   Wind: 6mph
Humidity: 43%   Direction: 280°W
Pressure: 29.88"   Gusts: NA
Location:  20.78°S, 139.98°E
Report Text: YBMA 312200Z AUTO 28005KT 9999 // NCD 31/17 Q1012
Loading
Personal Weather Stations






























Interactive Weather Map
Tropical Storm Tracking
New forecast layout! Learn more

10-Day Weather Forecast

Advertisements
Track Severe Weather on mobile